Time;durP1;ratioP1;P1;durP2;ratioP2;P2;SDS_P1;SDS_P2;PMS_P1;PMS_P2;Temp;Humidity;BMP_temperature;BMP_pressure;BME280_temperature;BME280_humidity;BME280_pressure;Samples;Min_cycle;Max_cycle;Signal;HPM_P1;HPM_P2
2021/10/27 00:01:33;;;;;;;78.40;71.32;;;;;;;0.88;100.00;102095.50;5051147;28;20400;-80
2021/10/27 00:04:00;;;;;;;75.38;68.15;;;;;;;0.71;100.00;102101.09;5051607;28;20059;-79
2021/10/27 00:06:27;;;;;;;71.63;64.22;;;;;;;0.91;100.00;102092.69;5047131;28;20048;-79
2021/10/27 00:08:54;;;;;;;67.20;60.72;;;;;;;0.78;100.00;102100.53;5052858;28;20143;-79
2021/10/27 00:11:21;;;;;;;67.75;61.35;;;;;;;0.89;100.00;102098.00;5048602;28;20057;-80
2021/10/27 00:13:49;;;;;;;68.65;62.45;;;;;;;0.85;100.00;102093.94;5042651;28;20058;-79
2021/10/27 00:16:16;;;;;;;71.22;65.00;;;;;;;0.78;100.00;102092.69;5053186;28;20463;-79
2021/10/27 00:18:42;;;;;;;69.85;63.33;;;;;;;0.66;100.00;102090.94;5049281;28;20110;-79
2021/10/27 00:21:09;;;;;;;69.57;63.60;;;;;;;0.87;100.00;102091.22;5049771;28;20111;-79
2021/10/27 00:23:36;;;;;;;68.45;62.75;;;;;;;0.74;100.00;102090.41;5041315;28;20472;-79
2021/10/27 00:26:03;;;;;;;63.70;57.53;;;;;;;0.44;100.00;102089.00;5048873;28;20048;-79
2021/10/27 00:28:29;;;;;;;81.20;72.88;;;;;;;0.63;100.00;102086.75;5046316;28;20455;-79
2021/10/27 00:30:57;;;;;;;83.93;75.03;;;;;;;0.72;100.00;102087.06;5044672;28;20102;-79
2021/10/27 00:33:24;;;;;;;77.13;69.32;;;;;;;0.60;100.00;102078.28;5048905;28;20099;-78
2021/10/27 00:35:51;;;;;;;75.43;67.57;;;;;;;0.65;100.00;102081.44;5050754;28;20435;-79
2021/10/27 00:38:18;;;;;;;78.10;70.15;;;;;;;0.51;100.00;102077.16;5047444;28;20444;-79
2021/10/27 00:40:45;;;;;;;75.82;68.35;;;;;;;0.58;100.00;102086.25;5049924;28;20044;-80
2021/10/27 00:43:12;;;;;;;77.68;70.00;;;;;;;0.23;100.00;102079.06;5041541;28;20531;-79
2021/10/27 00:45:39;;;;;;;73.03;65.50;;;;;;;0.15;100.00;102072.69;5047265;28;20057;-79
2021/10/27 00:48:07;;;;;;;69.70;62.67;;;;;;;0.53;100.00;102079.69;5051560;28;20122;-79
2021/10/27 00:50:34;;;;;;;70.25;62.42;;;;;;;0.72;100.00;102077.44;5044991;28;20042;-79
2021/10/27 00:53:01;;;;;;;78.75;70.95;;;;;;;0.64;100.00;102078.00;5045738;28;20104;-79
2021/10/27 00:55:28;;;;;;;70.15;62.83;;;;;;;0.60;100.00;102078.28;5045168;28;20053;-79
2021/10/27 00:57:56;;;;;;;73.63;66.35;;;;;;;0.78;100.00;102074.38;5049636;28;20141;-80
2021/10/27 01:00:22;;;;;;;69.60;62.50;;;;;;;0.66;100.00;102078.69;5051888;28;20057;-79
2021/10/27 01:02:49;;;;;;;75.25;67.55;;;;;;;0.75;100.00;102079.84;5052184;28;20444;-79
2021/10/27 01:05:17;;;;;;;76.38;68.55;;;;;;;0.66;100.00;102077.88;5050789;28;20041;-79
2021/10/27 01:07:44;;;;;;;70.80;63.60;;;;;;;0.63;100.00;102073.69;5049478;28;20479;-79
2021/10/27 01:10:11;;;;;;;70.15;63.33;;;;;;;0.60;100.00;102076.50;5048938;28;20532;-79
2021/10/27 01:12:38;;;;;;;72.07;65.32;;;;;;;0.71;100.00;102075.78;5047315;28;20052;-78
2021/10/27 01:15:06;;;;;;;73.68;66.22;;;;;;;0.64;100.00;102082.38;5049871;28;20053;-80
2021/10/27 01:17:34;;;;;;;78.07;70.10;;;;;;;0.50;100.00;102074.66;5044645;28;20116;-81
2021/10/27 01:20:02;;;;;;;73.95;66.72;;;;;;;0.53;100.00;102077.91;5045290;28;20052;-80
2021/10/27 01:22:32;;;;;;;74.25;67.57;;;;;;;0.48;100.00;102069.53;5049238;28;20048;-79
2021/10/27 01:25:00;;;;;;;66.75;60.85;;;;;;;0.20;100.00;102071.44;5048339;28;20111;-79
2021/10/27 01:27:28;;;;;;;68.20;62.30;;;;;;;0.29;100.00;102069.97;5043273;28;20111;-79
2021/10/27 01:29:56;;;;;;;68.25;61.92;;;;;;;0.42;100.00;102070.81;5052188;28;20049;-79
2021/10/27 01:32:26;;;;;;;66.72;60.83;;;;;;;0.59;100.00;102076.63;5052475;28;20048;-80
2021/10/27 01:34:53;;;;;;;70.05;64.07;;;;;;;0.51;100.00;102074.53;5049896;28;20045;-79
2021/10/27 01:37:22;;;;;;;67.55;61.67;;;;;;;0.52;100.00;102081.47;5047084;28;20103;-79
2021/10/27 01:39:49;;;;;;;70.47;64.28;;;;;;;0.37;100.00;102075.53;5045292;28;20049;-78
2021/10/27 01:42:16;;;;;;;68.22;62.20;;;;;;;0.50;100.00;102079.91;5045267;28;20042;-80
2021/10/27 01:44:43;;;;;;;66.65;60.78;;;;;;;0.54;100.00;102076.94;5050449;28;20114;-79
2021/10/27 01:47:10;;;;;;;62.22;56.60;;;;;;;0.60;100.00;102070.44;5047709;28;20110;-79
2021/10/27 01:49:36;;;;;;;62.08;56.47;;;;;;;0.60;100.00;102070.44;5050831;28;20041;-79
2021/10/27 01:52:04;;;;;;;67.65;61.72;;;;;;;0.65;100.00;102076.19;5051605;28;20049;-80
2021/10/27 01:54:32;;;;;;;66.68;60.35;;;;;;;0.44;100.00;102076.75;5048021;28;20481;-79
2021/10/27 01:56:59;;;;;;;71.53;65.43;;;;;;;0.55;100.00;102069.97;5051713;28;20057;-79
2021/10/27 01:59:26;;;;;;;67.32;61.28;;;;;;;0.49;100.00;102071.22;5045944;28;20045;-82
2021/10/27 02:01:53;;;;;;;65.25;59.75;;;;;;;0.26;100.00;102082.44;5172945;22;20472;-79
2021/10/27 02:04:19;;;;;;;67.47;61.33;;;;;;;0.36;100.00;102080.84;5063383;28;20126;-79
2021/10/27 02:06:47;;;;;;;70.55;64.45;;;;;;;0.25;100.00;102073.75;5066158;28;20045;-80
2021/10/27 02:09:14;;;;;;;71.85;65.60;;;;;;;0.30;100.00;102087.31;5061950;28;20388;-79
2021/10/27 02:11:42;;;;;;;66.50;60.95;;;;;;;0.39;100.00;102078.88;5071708;28;20106;-80
2021/10/27 02:14:09;;;;;;;66.28;60.72;;;;;;;0.33;100.00;102081.88;5066438;28;20110;-79
2021/10/27 02:16:36;;;;;;;67.22;61.08;;;;;;;0.27;100.00;102084.91;5061785;28;20049;-80
2021/10/27 02:19:04;;;;;;;63.25;57.35;;;;;;;0.39;100.00;102076.25;5069932;28;20055;-78
2021/10/27 02:21:30;;;;;;;69.80;62.35;;;;;;;0.61;100.00;102083.44;5058486;28;20044;-78
2021/10/27 02:23:57;;;;;;;71.03;63.42;;;;;;;0.54;100.00;102083.97;5065680;28;20049;-79
2021/10/27 02:26:24;;;;;;;70.95;63.97;;;;;;;0.56;100.00;102080.28;5064931;28;20053;-79
2021/10/27 02:28:53;;;;;;;60.67;55.58;;;;;;;0.43;100.00;102082.94;5058979;28;20052;-79
2021/10/27 02:31:20;;;;;;;62.40;57.38;;;;;;;0.49;100.00;102093.91;5066838;28;20069;-80
2021/10/27 02:33:48;;;;;;;67.30;61.30;;;;;;;0.25;100.00;102089.44;5060197;28;20052;-79
2021/10/27 02:36:15;;;;;;;72.55;66.63;;;;;;;0.26;100.00;102091.09;5060426;28;20082;-78
2021/10/27 02:38:42;;;;;;;72.10;65.38;;;;;;;0.23;100.00;102094.75;5069241;28;20117;-79
2021/10/27 02:41:09;;;;;;;75.70;69.10;;;;;;;0.25;100.00;102104.28;5064133;28;20052;-78
2021/10/27 02:43:36;;;;;;;68.10;61.22;;;;;;;0.32;100.00;102102.91;5065407;28;20199;-77
2021/10/27 02:46:05;;;;;;;91.97;81.20;;;;;;;0.14;100.00;102103.22;5068504;28;20114;-78
2021/10/27 02:48:32;;;;;;;83.15;73.07;;;;;;;0.13;100.00;102109.41;5059427;28;20044;-79
2021/10/27 02:50:58;;;;;;;78.80;70.47;;;;;;;0.16;100.00;102097.91;5065779;28;20725;-79
2021/10/27 02:53:25;;;;;;;87.90;71.32;;;;;;;0.25;100.00;102109.50;5068673;28;20109;-79
2021/10/27 02:55:52;;;;;;;78.72;68.25;;;;;;;0.17;100.00;102105.63;5061377;28;20056;-79
2021/10/27 02:58:19;;;;;;;76.30;63.47;;;;;;;0.17;100.00;102110.03;5061149;28;20053;-79
2021/10/27 03:00:45;;;;;;;76.65;67.85;;;;;;;0.16;100.00;102108.34;5069180;28;20048;-80
2021/10/27 03:03:13;;;;;;;81.65;67.20;;;;;;;-0.32;100.00;102106.31;5059648;28;20045;-80
2021/10/27 03:05:40;;;;;;;79.53;69.60;;;;;;;-0.42;100.00;102120.03;5061549;28;20472;-79
2021/10/27 03:08:08;;;;;;;78.35;70.10;;;;;;;-0.56;100.00;102113.13;5058242;28;20056;-79
2021/10/27 03:10:35;;;;;;;78.60;69.30;;;;;;;-0.16;100.00;102115.72;5064648;28;20518;-79
2021/10/27 03:13:01;;;;;;;78.45;69.22;;;;;;;-0.26;100.00;102123.34;5060933;28;20603;-80
2021/10/27 03:15:28;;;;;;;79.75;69.15;;;;;;;-0.09;100.00;102115.25;5058662;28;20468;-79
2021/10/27 03:17:55;;;;;;;77.95;69.72;;;;;;;-0.26;100.00;102126.78;5065590;28;20048;-80
2021/10/27 03:20:23;;;;;;;74.90;66.93;;;;;;;-0.33;100.00;102117.69;5055461;28;20431;-79
2021/10/27 03:22:50;;;;;;;68.20;61.28;;;;;;;-0.30;100.00;102121.88;5054586;28;20041;-78
2021/10/27 03:25:17;;;;;;;66.50;59.78;;;;;;;-0.17;100.00;102125.34;5066967;28;20045;-79
2021/10/27 03:27:44;;;;;;;65.35;58.95;;;;;;;-0.08;100.00;102119.50;5066448;28;20370;-79
2021/10/27 03:30:11;;;;;;;66.10;59.10;;;;;;;-0.59;100.00;102121.16;5062504;28;20117;-80
2021/10/27 03:32:38;;;;;;;70.90;63.22;;;;;;;-0.89;100.00;102114.34;5063246;28;20056;-79
2021/10/27 03:35:05;;;;;;;66.35;59.83;;;;;;;-0.63;100.00;102127.53;5062564;28;20489;-79
2021/10/27 03:37:33;;;;;;;64.63;58.70;;;;;;;-0.46;100.00;102125.47;5066109;28;20450;-80
2021/10/27 03:40:00;;;;;;;64.65;58.55;;;;;;;-0.45;100.00;102126.31;5061364;28;20079;-79
2021/10/27 03:42:27;;;;;;;70.28;64.00;;;;;;;-0.33;100.00;102128.13;5055280;28;20045;-78
2021/10/27 03:44:54;;;;;;;67.90;61.60;;;;;;;-0.51;100.00;102131.94;5060010;28;20048;-79
2021/10/27 03:47:21;;;;;;;65.72;60.20;;;;;;;-0.31;100.00;102130.63;5066224;28;20052;-80
2021/10/27 03:49:48;;;;;;;61.10;55.60;;;;;;;-0.30;100.00;102135.78;5064518;28;20111;-79
2021/10/27 03:52:15;;;;;;;59.28;53.83;;;;;;;-0.27;100.00;102130.34;5055634;28;20122;-79
2021/10/27 03:54:44;;;;;;;60.25;54.80;;;;;;;-0.34;100.00;102130.84;5065271;28;20045;-81
2021/10/27 03:57:10;;;;;;;62.42;56.92;;;;;;;-0.45;100.00;102128.94;5063914;28;20476;-78
2021/10/27 03:59:37;;;;;;;60.22;55.05;;;;;;;-0.43;100.00;102136.66;5059786;28;20083;-80
2021/10/27 04:02:04;;;;;;;58.45;53.22;;;;;;;-0.32;100.00;102142.03;5066515;28;20117;-81
2021/10/27 04:04:31;;;;;;;55.55;50.83;;;;;;;-0.36;100.00;102143.16;5057650;28;20744;-79
2021/10/27 04:06:58;;;;;;;58.85;53.55;;;;;;;-0.35;100.00;102137.84;5061719;28;20185;-81
2021/10/27 04:09:25;;;;;;;64.07;58.08;;;;;;;-0.13;100.00;102144.25;5067567;28;20117;-79
2021/10/27 04:11:53;;;;;;;62.80;57.22;;;;;;;-0.19;100.00;102135.03;5058368;28;20048;-78
2021/10/27 04:14:20;;;;;;;61.28;55.88;;;;;;;-0.31;100.00;102130.63;5061167;28;20044;-79
2021/10/27 04:16:47;;;;;;;61.05;55.78;;;;;;;-0.35;100.00;102134.38;5063582;28;20044;-80
2021/10/27 04:19:13;;;;;;;58.13;53.00;;;;;;;-0.23;100.00;102136.19;5064576;28;20087;-78
2021/10/27 04:21:40;;;;;;;62.55;57.40;;;;;;;-0.18;100.00;102144.56;5057168;28;20181;-79
2021/10/27 04:24:07;;;;;;;65.68;60.35;;;;;;;-0.23;100.00;102151.88;5063466;28;20568;-81
2021/10/27 04:26:34;;;;;;;64.85;59.75;;;;;;;-0.17;100.00;102141.00;5069157;28;20056;-80
2021/10/27 04:29:03;;;;;;;66.47;60.65;;;;;;;-0.29;100.00;102141.81;5058716;28;20071;-79
2021/10/27 04:31:30;;;;;;;57.97;52.90;;;;;;;-0.26;100.00;102149.47;5067172;28;20060;-79
2021/10/27 04:33:57;;;;;;;58.67;53.17;;;;;;;-0.26;100.00;102155.50;5060830;28;20446;-80
2021/10/27 04:36:24;;;;;;;67.70;60.97;;;;;;;-0.28;100.00;102156.53;5058901;28;20049;-78
2021/10/27 04:38:50;;;;;;;107.80;87.05;;;;;;;-0.22;100.00;102147.47;5057644;28;20044;-79
2021/10/27 04:41:17;;;;;;;76.28;68.30;;;;;;;-0.53;100.00;102152.91;5055216;28;20052;-80
2021/10/27 04:43:44;;;;;;;60.70;54.95;;;;;;;-1.14;100.00;102143.75;5056169;28;20450;-78
2021/10/27 04:46:12;;;;;;;58.00;52.95;;;;;;;-0.75;100.00;102150.84;5057499;28;20053;-80
2021/10/27 04:48:38;;;;;;;59.97;55.13;;;;;;;-0.56;100.00;102147.88;5048829;28;20133;-78
2021/10/27 04:51:05;;;;;;;72.32;65.55;;;;;;;-0.60;100.00;102156.88;5058795;28;20493;-78
2021/10/27 04:53:32;;;;;;;75.45;67.80;;;;;;;-0.61;100.00;102160.38;5049291;28;20464;-78
2021/10/27 04:55:59;;;;;;;71.68;64.00;;;;;;;-0.70;100.00;102168.81;5067962;28;20057;-79
2021/10/27 04:58:27;;;;;;;66.38;59.28;;;;;;;-0.66;100.00;102167.69;5061087;28;20113;-80
2021/10/27 05:00:54;;;;;;;74.35;65.15;;;;;;;-0.60;100.00;102169.91;5062903;28;20500;-79
2021/10/27 05:03:22;;;;;;;76.93;66.85;;;;;;;-0.45;100.00;102168.09;5065358;28;20460;-79
2021/10/27 05:05:49;;;;;;;70.63;60.45;;;;;;;-0.42;100.00;102180.09;5062282;28;20052;-79
2021/10/27 05:08:18;;;;;;;67.30;59.88;;;;;;;-0.67;100.00;102186.03;5057997;28;20045;-79
2021/10/27 05:10:45;;;;;;;77.78;66.93;;;;;;;-0.37;100.00;102185.84;5066645;28;20047;-79
2021/10/27 05:13:13;;;;;;;75.28;66.07;;;;;;;-0.46;100.00;102184.69;5061560;28;20534;-81
2021/10/27 05:15:39;;;;;;;140.88;92.72;;;;;;;-0.58;100.00;102190.69;5055752;28;21679;-79
2021/10/27 05:18:06;;;;;;;142.45;91.15;;;;;;;-0.43;100.00;102188.88;5056504;28;20060;-78
2021/10/27 05:20:34;;;;;;;123.80;82.05;;;;;;;-0.64;100.00;102199.72;5061975;28;20074;-79
2021/10/27 05:23:01;;;;;;;112.65;79.38;;;;;;;-0.14;100.00;102203.50;5062468;28;20048;-79
2021/10/27 05:25:28;;;;;;;111.63;82.55;;;;;;;0.01;100.00;102204.28;5066549;28;20048;-79
2021/10/27 05:27:55;;;;;;;112.82;80.43;;;;;;;0.02;100.00;102205.09;5052157;28;20421;-79
2021/10/27 05:30:22;;;;;;;105.70;77.65;;;;;;;-0.04;100.00;102206.34;5059500;28;20122;-80
2021/10/27 05:32:49;;;;;;;99.47;73.20;;;;;;;0.13;100.00;102211.31;5065989;28;20041;-79
2021/10/27 05:35:16;;;;;;;105.00;78.55;;;;;;;0.48;100.00;102215.09;5062653;28;20110;-79
2021/10/27 05:37:44;;;;;;;100.65;79.13;;;;;;;0.59;100.00;102202.97;5062523;28;20462;-78
2021/10/27 05:40:12;;;;;;;96.93;76.10;;;;;;;0.74;100.00;102210.72;5062769;28;20463;-79
2021/10/27 05:42:40;;;;;;;88.25;70.70;;;;;;;0.86;100.00;102215.94;5021997;28;20131;-79
2021/10/27 05:45:08;;;;;;;96.07;76.22;;;;;;;1.32;100.00;102220.56;5026129;28;20050;-79
2021/10/27 05:47:35;;;;;;;93.78;77.70;;;;;;;1.60;100.00;102226.44;5043375;28;20099;-80
2021/10/27 05:50:22;;;;;;;86.82;72.00;;;;;;;1.70;100.00;102232.72;5039370;28;20049;-78
2021/10/27 05:55:34;;;;;;;79.68;68.50;;;;;;;1.86;100.00;102234.22;5043544;28;20107;-81
2021/10/27 05:58:02;;;;;;;79.00;68.13;;;;;;;2.40;100.00;102244.19;5042777;28;20072;-78
2021/10/27 06:00:29;;;;;;;81.03;72.40;;;;;;;2.78;100.00;102249.13;5035257;28;20485;-79
2021/10/27 06:02:57;;;;;;;79.72;68.75;;;;;;;2.92;100.00;102253.34;5044761;28;20099;-79
2021/10/27 06:05:24;;;;;;;78.72;66.78;;;;;;;2.14;100.00;102244.34;5042259;28;20549;-79
2021/10/27 06:07:52;;;;;;;86.90;77.55;;;;;;;2.85;100.00;102247.75;5038731;28;20394;-79
2021/10/27 06:10:22;;;;;;;107.57;97.50;;;;;;;7.14;100.00;102260.13;5036732;28;20049;-76
2021/10/27 06:12:50;;;;;;;79.07;70.60;;;;;;;4.39;100.00;102259.09;5034316;28;20128;-76
2021/10/27 06:15:18;;;;;;;74.93;67.38;;;;;;;3.55;100.00;102258.94;5035225;28;20378;-76
2021/10/27 06:17:45;;;;;;;78.03;70.13;;;;;;;3.92;100.00;102266.47;5034839;28;20045;-75
2021/10/27 06:20:13;;;;;;;76.85;68.28;;;;;;;3.82;100.00;102272.47;5034810;28;20127;-77
2021/10/27 06:22:41;;;;;;;80.55;70.97;;;;;;;3.37;100.00;102279.59;5035868;28;20045;-76
2021/10/27 06:25:11;;;;;;;79.60;71.15;;;;;;;3.51;100.00;102274.09;5035644;28;20057;-76
2021/10/27 06:27:40;;;;;;;78.53;69.97;;;;;;;3.85;100.00;102277.50;5039967;28;20095;-76
2021/10/27 06:30:11;;;;;;;82.57;74.10;;;;;;;3.81;100.00;102280.47;5038831;28;20095;-76
2021/10/27 06:32:40;;;;;;;83.53;74.50;;;;;;;3.83;100.00;102289.91;5044851;28;20115;-76
2021/10/27 06:35:11;;;;;;;79.72;70.00;;;;;;;3.63;100.00;102291.53;5045062;28;20150;-76
2021/10/27 06:46:11;;;;;;;105.40;94.43;;;;;;;3.90;100.00;102295.50;5037411;28;20040;-75
2021/10/27 06:48:38;;;;;;;112.10;100.32;;;;;;;3.87;100.00;102298.38;5045666;28;20049;-77
2021/10/27 06:51:05;;;;;;;131.70;118.25;;;;;;;4.06;100.00;102305.63;5047783;28;20995;-75
2021/10/27 06:53:32;;;;;;;129.65;116.10;;;;;;;4.14;100.00;102305.81;5041869;28;20475;-76
2021/10/27 06:56:00;;;;;;;139.73;125.57;;;;;;;3.91;100.00;102297.19;5043150;28;20076;-75
2021/10/27 06:58:30;;;;;;;126.70;113.35;;;;;;;3.68;100.00;102306.91;5034014;28;20053;-77
2021/10/27 07:00:59;;;;;;;132.75;118.65;;;;;;;3.69;100.00;102311.19;5044195;28;20619;-77
2021/10/27 07:04:03;;;;;;;133.93;119.65;;;;;;;4.16;100.00;102319.69;5042615;28;20056;-79
2021/10/27 07:17:23;;;;;;;149.50;134.02;;;;;;;4.19;100.00;102310.72;5041171;28;20638;-76
2021/10/27 07:19:50;;;;;;;162.43;146.40;;;;;;;4.28;100.00;102309.97;5042420;28;20378;-75
2021/10/27 07:22:17;;;;;;;151.75;136.80;;;;;;;4.13;100.00;102307.63;5041521;28;20115;-78
2021/10/27 07:24:44;;;;;;;156.40;140.95;;;;;;;4.29;100.00;102298.47;5041140;28;20563;-79
2021/10/27 07:27:13;;;;;;;150.73;135.30;;;;;;;4.43;100.00;102306.09;5043238;28;20111;-78
2021/10/27 07:29:43;;;;;;;218.00;180.27;;;;;;;4.87;100.00;102308.59;5037508;28;20045;-75
2021/10/27 07:32:12;;;;;;;151.52;135.23;;;;;;;4.78;100.00;102312.81;5043122;28;20048;-75
2021/10/27 07:34:41;;;;;;;143.43;128.57;;;;;;;4.52;100.00;102312.38;5039764;28;20055;-75
2021/10/27 07:40:00;;;;;;;157.43;141.70;;;;;;;4.64;100.00;102310.53;5040976;28;20074;-75
2021/10/27 07:42:29;;;;;;;146.82;132.50;;;;;;;4.47;100.00;102306.66;5039311;28;20053;-75
2021/10/27 07:44:56;;;;;;;149.70;135.27;;;;;;;4.90;100.00;102309.19;5038395;28;20115;-77
2021/10/27 07:47:23;;;;;;;148.13;133.40;;;;;;;4.89;100.00;102311.94;5040505;28;20135;-75
2021/10/27 07:49:49;;;;;;;141.38;127.30;;;;;;;4.78;100.00;102318.94;5036254;28;20076;-75
2021/10/27 07:52:16;;;;;;;138.40;124.05;;;;;;;4.59;100.00;102316.16;5038407;28;20049;-76
2021/10/27 07:54:44;;;;;;;152.60;136.57;;;;;;;4.59;100.00;102314.38;5039022;28;20469;-76
2021/10/27 07:57:11;;;;;;;143.00;128.23;;;;;;;5.13;100.00;102311.66;5040930;28;20136;-77
2021/10/27 07:59:39;;;;;;;140.00;125.22;;;;;;;5.15;100.00;102318.47;5029672;28;20064;-76
2021/10/27 08:02:12;;;;;;;139.65;125.00;;;;;;;4.97;100.00;102317.41;5037649;28;20061;-76
2021/10/27 08:04:39;;;;;;;139.70;125.07;;;;;;;4.99;100.00;102318.06;5027421;28;20054;-76
2021/10/27 08:07:06;;;;;;;154.48;138.60;;;;;;;5.20;100.00;102316.25;5040170;28;20458;-78
2021/10/27 08:09:34;;;;;;;159.48;143.52;;;;;;;5.40;100.00;102313.72;5038921;28;20049;-76
2021/10/27 08:12:00;;;;;;;158.70;143.07;;;;;;;5.42;100.00;102322.31;5032166;28;20049;-75
2021/10/27 08:14:27;;;;;;;150.82;135.90;;;;;;;5.28;100.00;102324.34;5041640;28;20053;-77
2021/10/27 08:16:56;;;;;;;158.32;143.35;;;;;;;5.47;100.00;102320.09;5036133;28;20464;-76
2021/10/27 08:19:23;;;;;;;157.48;142.18;;;;;;;5.71;100.00;102312.69;5038860;28;20064;-76
2021/10/27 08:21:50;;;;;;;157.48;142.88;;;;;;;5.62;100.00;102323.22;5038733;28;20046;-76
2021/10/27 08:24:22;;;;;;;161.77;146.73;;;;;;;5.69;100.00;102319.09;5049186;28;20420;-75
2021/10/27 08:26:54;;;;;;;150.63;135.55;;;;;;;5.78;100.00;102320.91;5040661;28;20100;-76
2021/10/27 08:29:25;;;;;;;150.63;136.13;;;;;;;5.69;100.00;102313.81;5041224;28;20500;-76
2021/10/27 08:31:58;;;;;;;150.90;136.23;;;;;;;5.65;100.00;102313.22;5041061;28;20049;-76
2021/10/27 08:34:37;;;;;;;151.73;137.38;;;;;;;6.36;100.00;102323.66;5041638;28;20045;-77
2021/10/27 08:37:04;;;;;;;136.82;123.43;;;;;;;5.87;100.00;102319.25;5038654;28;20405;-77
2021/10/27 08:39:31;;;;;;;142.02;129.20;;;;;;;6.01;100.00;102320.69;5046049;28;20060;-75
2021/10/27 08:41:58;;;;;;;136.30;123.65;;;;;;;5.94;100.00;102320.41;5043225;28;20567;-76
2021/10/27 08:44:25;;;;;;;134.88;124.80;;;;;;;5.75;100.00;102321.19;5041428;28;20099;-76
2021/10/27 08:46:53;;;;;;;141.05;130.35;;;;;;;5.66;100.00;102322.00;5046744;28;20481;-76
2021/10/27 08:49:25;;;;;;;137.82;127.15;;;;;;;5.88;100.00;102323.56;5042498;28;20059;-76
2021/10/27 08:51:56;;;;;;;138.23;127.45;;;;;;;5.45;100.00;102330.78;5050290;28;20077;-75
2021/10/27 08:54:23;;;;;;;139.85;129.35;;;;;;;5.91;100.00;102326.75;5041145;28;20048;-76
2021/10/27 08:56:54;;;;;;;151.93;141.35;;;;;;;5.92;100.00;102323.13;5039029;28;20457;-75
2021/10/27 08:59:22;;;;;;;143.77;132.90;;;;;;;5.92;100.00;102317.03;5033768;28;20073;-75
2021/10/27 09:01:56;;;;;;;139.63;129.35;;;;;;;5.76;100.00;102314.09;5036997;28;20100;-76
2021/10/27 09:04:38;;;;;;;148.65;137.88;;;;;;;5.97;100.00;102314.88;5037723;28;20044;-77
2021/10/27 09:07:14;;;;;;;154.20;143.45;;;;;;;6.54;100.00;102322.94;5042132;28;20050;-77
2021/10/27 09:35:13;;;;;;;95.80;88.38;;;;;;;7.80;100.00;102286.31;5060805;28;20071;-77
2021/10/27 09:38:18;;;;;;;83.55;77.00;;;;;;;8.72;100.00;102289.63;5055830;28;20088;-75
2021/10/27 10:05:40;;;;;;;51.55;47.33;;;;;;;12.14;100.00;102250.63;5058749;28;20045;-76
2021/10/27 10:08:08;;;;;;;53.33;48.78;;;;;;;13.62;100.00;102238.34;5052213;28;20531;-76
2021/10/27 10:10:35;;;;;;;51.47;47.22;;;;;;;13.04;100.00;102241.75;5054568;28;20489;-76
2021/10/27 10:13:03;;;;;;;54.13;49.65;;;;;;;12.80;100.00;102244.69;5053798;28;20150;-76
2021/10/27 10:15:37;;;;;;;50.92;46.90;;;;;;;13.15;100.00;102243.09;5051806;28;20115;-76
2021/10/27 10:18:06;;;;;;;52.78;48.75;;;;;;;13.01;100.00;102234.13;5052645;28;20052;-75
2021/10/27 10:20:35;;;;;;;53.00;48.90;;;;;;;10.39;100.00;102234.94;5057419;28;20053;-76
2021/10/27 10:23:17;;;;;;;53.35;49.38;;;;;;;12.81;100.00;102239.16;5055083;28;20064;-76
2021/10/27 10:25:50;;;;;;;55.73;51.33;;;;;;;11.88;100.00;102245.66;5055401;28;20052;-76
2021/10/27 10:28:20;;;;;;;56.55;52.08;;;;;;;11.75;100.00;102241.91;5053588;28;20049;-77
2021/10/27 10:30:54;;;;;;;51.47;47.53;;;;;;;13.97;100.00;102240.13;5055389;28;20051;-76
2021/10/27 10:33:34;;;;;;;50.53;46.78;;;;;;;13.54;100.00;102239.28;5052955;28;20453;-76
2021/10/27 10:36:03;;;;;;;51.72;47.53;;;;;;;13.64;100.00;102233.63;5052561;28;20049;-77
2021/10/27 10:41:57;;;;;;;49.05;45.40;;;;;;;12.92;100.00;102239.69;5042069;28;20179;-76
2021/10/27 10:45:01;;;;;;;52.75;49.05;;;;;;;15.74;100.00;102233.59;5034399;28;20107;-77
2021/10/27 11:15:14;;;;;;;48.00;44.58;;;;;;;12.88;100.00;102222.44;5040897;28;20055;-75
2021/10/27 11:23:13;;;;;;;47.85;44.50;;;;;;;12.82;100.00;102202.66;5036298;28;20059;-75
2021/10/27 11:40:12;;;;;;;50.95;47.25;;;;;;;16.73;100.00;102192.47;4981536;28;20108;-78
2021/10/27 11:42:45;;;;;;;50.72;46.03;;;;;;;18.38;100.00;102186.31;5033279;28;20056;-76
2021/10/27 11:45:21;;;;;;;;;;;;;;;17.72;100.00;102184.97;5037159;28;20041;-79
2021/10/27 11:47:51;;;;;;;49.22;45.25;;;;;;;17.10;100.00;102184.75;5038096;28;19990;-78
2021/10/27 11:50:21;;;;;;;53.83;50.03;;;;;;;17.62;100.00;102180.09;5037512;28;20045;-76
2021/10/27 11:52:52;;;;;;;51.47;47.88;;;;;;;17.08;100.00;102181.44;5042874;28;20554;-78
2021/10/27 11:55:20;;;;;;;51.20;47.05;;;;;;;16.75;100.00;102177.00;5036835;28;20136;-76
2021/10/27 11:57:53;;;;;;;48.80;44.38;;;;;;;16.60;100.00;102187.16;5042471;28;20112;-77
2021/10/27 12:00:29;;;;;;;51.13;46.85;;;;;;;15.81;100.00;102186.19;5040256;28;20424;-75
2021/10/27 12:03:00;;;;;;;52.30;48.28;;;;;;;16.08;100.00;102176.28;5037771;28;20132;-79
2021/10/27 12:05:34;;;;;;;49.15;45.17;;;;;;;16.02;100.00;102185.97;5042112;28;20049;-76
2021/10/27 12:08:34;;;;;;;51.30;47.75;;;;;;;16.76;100.00;102178.66;5036555;28;20042;-77
2021/10/27 12:11:18;;;;;;;44.88;41.63;;;;;;;17.56;100.00;102170.22;5038669;28;20053;-75
2021/10/27 12:13:54;;;;;;;47.13;43.22;;;;;;;16.81;100.00;102180.72;5039302;28;20055;-76
2021/10/27 12:16:40;;;;;;;46.25;42.75;;;;;;;13.60;100.00;102187.81;5040721;28;20500;-80
2021/10/27 12:19:14;;;;;;;46.03;42.72;;;;;;;17.65;100.00;102165.41;5036355;28;20057;-77
2021/10/27 12:21:49;;;;;;;46.63;43.20;;;;;;;18.66;100.00;102170.47;5040542;28;20103;-76
2021/10/27 12:24:18;;;;;;;48.92;45.40;;;;;;;16.55;100.00;102165.50;5043616;28;20056;-76
2021/10/27 12:26:46;;;;;;;43.92;40.80;;;;;;;17.59;100.00;102157.19;5042411;28;20045;-76
2021/10/27 12:29:16;;;;;;;44.15;40.92;;;;;;;15.84;100.00;102167.03;5039335;28;20287;-76
2021/10/27 12:31:45;;;;;;;43.05;40.05;;;;;;;17.11;100.00;102154.16;5038042;28;20049;-75
2021/10/27 12:34:27;;;;;;;41.03;38.25;;;;;;;16.38;100.00;102152.53;5042106;28;20084;-77
2021/10/27 12:36:58;;;;;;;42.08;39.03;;;;;;;17.97;100.00;102156.31;5040470;28;20049;-78
2021/10/27 12:39:28;;;;;;;42.03;39.17;;;;;;;16.60;100.00;102157.66;5039310;28;20084;-76
2021/10/27 12:42:03;;;;;;;42.10;39.00;;;;;;;16.44;100.00;102156.25;5044554;28;20049;-76
2021/10/27 12:44:30;;;;;;;42.40;39.38;;;;;;;16.72;100.00;102154.09;5035078;28;20064;-76
2021/10/27 12:47:11;;;;;;;42.95;40.10;;;;;;;17.99;100.00;102148.81;5036317;28;20045;-77
2021/10/27 12:49:39;;;;;;;46.05;42.75;;;;;;;18.10;99.92;102149.16;5040158;28;20059;-76
2021/10/27 12:52:31;;;;;;;50.90;47.25;;;;;;;16.35;100.00;102146.78;5041512;28;20102;-76
2021/10/27 12:55:21;;;;;;;48.20;43.93;;;;;;;17.25;100.00;102136.97;5041792;28;20037;-76
2021/10/27 12:57:59;;;;;;;46.00;42.70;;;;;;;15.96;100.00;102143.94;5040745;28;20371;-78
2021/10/27 13:00:32;;;;;;;50.58;46.25;;;;;;;16.34;100.00;102145.13;5037319;28;20046;-75
2021/10/27 13:03:21;;;;;;;47.58;44.20;;;;;;;16.02;100.00;102145.78;5034454;28;20059;-76
2021/10/27 13:05:50;;;;;;;46.83;43.28;;;;;;;15.68;100.00;102136.13;5033927;28;20042;-77
2021/10/27 13:11:21;;;;;;;47.60;44.10;;;;;;;17.40;100.00;102123.22;5031778;28;20392;-76
2021/10/27 13:14:04;;;;;;;50.20;45.75;;;;;;;16.64;100.00;102134.72;5038331;28;20045;-75
2021/10/27 13:19:25;;;;;;;51.30;47.28;;;;;;;16.32;100.00;102137.28;5039096;28;20378;-77
2021/10/27 13:22:06;;;;;;;48.10;44.60;;;;;;;16.43;100.00;102133.97;5034786;28;20045;-76
2021/10/27 13:30:13;;;;;;;48.95;45.28;;;;;;;15.30;100.00;102131.28;5038273;28;20475;-76